Terminal Aerodrome Forecast
Issued by NWS

Home | Current Version | Previous Version | Text Only | Print | Product List | Glossary On
Versions: 1 2 3 4 5 6 7 8 9 10 11 12 13
000
FTUS41 KBTV 200500
TAFMSS
TAF
KMSS 200527Z 2006/2106 00000KT P6SM SCT250 WS020/21035KT
     FM201300 21010KT P6SM BKN050
     FM201600 21014G26KT P6SM BKN040
     FM201900 21016G32KT P6SM BKN080
     FM202300 21012G20KT P6SM BKN080=

USA.gov is the U.S. government's official web portal to all federal, state and local government web resources and services.